sensor_id;sensor_type;location;lat;lon;timestamp;temperature;humidity
23411;DHT22;11878;51.774;7.220;2022-10-18T00:02:29;14.80;99.90
23411;DHT22;11878;51.774;7.220;2022-10-18T00:05:31;15.00;99.90
23411;DHT22;11878;51.774;7.220;2022-10-18T00:08:33;15.00;99.90
23411;DHT22;11878;51.774;7.220;2022-10-18T00:11:35;15.00;99.90
23411;DHT22;11878;51.774;7.220;2022-10-18T00:14:37;14.90;99.90
23411;DHT22;11878;51.774;7.220;2022-10-18T00:17:38;14.90;99.90
23411;DHT22;11878;51.774;7.220;2022-10-18T00:20:40;15.00;99.90
23411;DHT22;11878;51.774;7.220;2022-10-18T00:23:43;15.00;99.90
23411;DHT22;11878;51.774;7.220;2022-10-18T00:26:45;14.90;99.90
23411;DHT22;11878;51.774;7.220;2022-10-18T00:29:46;15.00;99.90
23411;DHT22;11878;51.774;7.220;2022-10-18T00:32:48;15.10;99.90
23411;DHT22;11878;51.774;7.220;2022-10-18T00:35:50;15.00;99.90
23411;DHT22;11878;51.774;7.220;2022-10-18T00:38:52;15.00;99.90
23411;DHT22;11878;51.774;7.220;2022-10-18T00:41:53;15.00;99.90
23411;DHT22;11878;51.774;7.220;2022-10-18T00:45:00;15.00;99.90
23411;DHT22;11878;51.774;7.220;2022-10-18T00:48:03;15.00;99.90
23411;DHT22;11878;51.774;7.220;2022-10-18T00:51:05;14.90;99.90
23411;DHT22;11878;51.774;7.220;2022-10-18T00:54:07;14.90;99.90
23411;DHT22;11878;51.774;7.220;2022-10-18T00:57:09;14.90;99.90
23411;DHT22;11878;51.774;7.220;2022-10-18T01:00:12;14.90;99.90
23411;DHT22;11878;51.774;7.220;2022-10-18T01:03:14;14.90;99.90
23411;DHT22;11878;51.774;7.220;2022-10-18T01:06:16;14.80;99.90
23411;DHT22;11878;51.774;7.220;2022-10-18T01:09:41;14.80;99.90
23411;DHT22;11878;51.774;7.220;2022-10-18T01:22:47;14.80;99.90
23411;DHT22;11878;51.774;7.220;2022-10-18T01:33:16;14.90;99.90
23411;DHT22;11878;51.774;7.220;2022-10-18T01:36:32;14.90;99.90
23411;DHT22;11878;51.774;7.220;2022-10-18T01:39:37;14.80;99.90
23411;DHT22;11878;51.774;7.220;2022-10-18T01:42:42;14.90;99.90
23411;DHT22;11878;51.774;7.220;2022-10-18T01:45:45;14.80;99.90
23411;DHT22;11878;51.774;7.220;2022-10-18T01:48:48;14.90;99.90
23411;DHT22;11878;51.774;7.220;2022-10-18T01:51:50;14.80;99.90
23411;DHT22;11878;51.774;7.220;2022-10-18T01:54:53;14.80;99.90
23411;DHT22;11878;51.774;7.220;2022-10-18T02:01:05;14.80;99.90
23411;DHT22;11878;51.774;7.220;2022-10-18T02:07:32;14.80;99.90
23411;DHT22;11878;51.774;7.220;2022-10-18T02:13:44;14.80;99.90
23411;DHT22;11878;51.774;7.220;2022-10-18T02:16:51;14.80;99.90
23411;DHT22;11878;51.774;7.220;2022-10-18T02:19:54;14.90;99.90
23411;DHT22;11878;51.774;7.220;2022-10-18T02:22:58;14.80;99.90
23411;DHT22;11878;51.774;7.220;2022-10-18T02:26:01;14.90;99.90
23411;DHT22;11878;51.774;7.220;2022-10-18T02:29:02;14.90;99.90
23411;DHT22;11878;51.774;7.220;2022-10-18T02:32:12;14.90;99.90
23411;DHT22;11878;51.774;7.220;2022-10-18T02:38:26;14.90;99.90
23411;DHT22;11878;51.774;7.220;2022-10-18T02:41:29;14.90;99.90
23411;DHT22;11878;51.774;7.220;2022-10-18T02:44:35;14.90;99.90
23411;DHT22;11878;51.774;7.220;2022-10-18T02:47:37;14.90;99.90
23411;DHT22;11878;51.774;7.220;2022-10-18T02:50:38;14.90;99.90
23411;DHT22;11878;51.774;7.220;2022-10-18T02:53:40;14.90;99.90
23411;DHT22;11878;51.774;7.220;2022-10-18T02:56:42;15.50;99.90
23411;DHT22;11878;51.774;7.220;2022-10-18T02:59:44;14.90;99.90
23411;DHT22;11878;51.774;7.220;2022-10-18T03:02:45;14.90;99.90
23411;DHT22;11878;51.774;7.220;2022-10-18T03:05:51;14.90;99.90
23411;DHT22;11878;51.774;7.220;2022-10-18T03:08:53;14.90;99.90
23411;DHT22;11878;51.774;7.220;2022-10-18T03:11:54;15.00;99.90
23411;DHT22;11878;51.774;7.220;2022-10-18T03:14:56;15.00;99.90
23411;DHT22;11878;51.774;7.220;2022-10-18T03:17:58;14.90;99.90
23411;DHT22;11878;51.774;7.220;2022-10-18T03:21:04;15.00;99.90
23411;DHT22;11878;51.774;7.220;2022-10-18T03:24:06;15.00;99.90
23411;DHT22;11878;51.774;7.220;2022-10-18T03:27:07;14.90;99.90
23411;DHT22;11878;51.774;7.220;2022-10-18T03:30:09;14.90;99.90
23411;DHT22;11878;51.774;7.220;2022-10-18T03:33:12;14.90;99.90
23411;DHT22;11878;51.774;7.220;2022-10-18T03:36:14;14.90;99.90
23411;DHT22;11878;51.774;7.220;2022-10-18T03:39:15;14.90;99.90
23411;DHT22;11878;51.774;7.220;2022-10-18T03:42:17;14.90;99.90
23411;DHT22;11878;51.774;7.220;2022-10-18T03:45:19;14.90;99.90
23411;DHT22;11878;51.774;7.220;2022-10-18T03:48:20;14.90;99.90
23411;DHT22;11878;51.774;7.220;2022-10-18T03:51:22;14.90;99.90
23411;DHT22;11878;51.774;7.220;2022-10-18T03:54:24;14.90;99.90
23411;DHT22;11878;51.774;7.220;2022-10-18T03:57:25;14.90;99.90
23411;DHT22;11878;51.774;7.220;2022-10-18T04:00:27;14.90;99.90
23411;DHT22;11878;51.774;7.220;2022-10-18T04:03:29;14.90;99.90
23411;DHT22;11878;51.774;7.220;2022-10-18T04:06:30;14.90;99.90
23411;DHT22;11878;51.774;7.220;2022-10-18T04:09:32;14.80;99.90
23411;DHT22;11878;51.774;7.220;2022-10-18T04:12:34;14.80;99.90
23411;DHT22;11878;51.774;7.220;2022-10-18T04:15:35;14.80;99.90
23411;DHT22;11878;51.774;7.220;2022-10-18T04:18:37;14.90;99.90
23411;DHT22;11878;51.774;7.220;2022-10-18T04:21:39;14.90;99.90
23411;DHT22;11878;51.774;7.220;2022-10-18T04:24:40;14.80;99.90
23411;DHT22;11878;51.774;7.220;2022-10-18T04:27:42;14.80;99.90
23411;DHT22;11878;51.774;7.220;2022-10-18T04:30:49;14.90;99.90
23411;DHT22;11878;51.774;7.220;2022-10-18T04:33:51;14.90;99.90
23411;DHT22;11878;51.774;7.220;2022-10-18T04:36:52;14.90;99.90
23411;DHT22;11878;51.774;7.220;2022-10-18T04:39:54;14.90;99.90
23411;DHT22;11878;51.774;7.220;2022-10-18T04:42:56;14.90;99.90
23411;DHT22;11878;51.774;7.220;2022-10-18T04:45:58;14.80;99.90
23411;DHT22;11878;51.774;7.220;2022-10-18T04:49:00;14.90;99.90
23411;DHT22;11878;51.774;7.220;2022-10-18T04:52:03;14.80;99.90
23411;DHT22;11878;51.774;7.220;2022-10-18T04:55:05;14.80;99.90
23411;DHT22;11878;51.774;7.220;2022-10-18T04:58:06;14.80;99.90
23411;DHT22;11878;51.774;7.220;2022-10-18T05:01:08;14.80;99.90
23411;DHT22;11878;51.774;7.220;2022-10-18T05:04:10;14.70;99.90
23411;DHT22;11878;51.774;7.220;2022-10-18T05:07:11;14.70;99.90
23411;DHT22;11878;51.774;7.220;2022-10-18T05:10:13;14.70;99.90
23411;DHT22;11878;51.774;7.220;2022-10-18T05:13:15;14.70;99.90
23411;DHT22;11878;51.774;7.220;2022-10-18T05:16:17;14.60;99.90
23411;DHT22;11878;51.774;7.220;2022-10-18T05:19:19;14.60;99.90
23411;DHT22;11878;51.774;7.220;2022-10-18T05:22:20;14.70;99.90
23411;DHT22;11878;51.774;7.220;2022-10-18T05:25:22;14.60;99.90
23411;DHT22;11878;51.774;7.220;2022-10-18T05:28:24;14.60;99.90
23411;DHT22;11878;51.774;7.220;2022-10-18T05:31:42;14.60;99.90
23411;DHT22;11878;51.774;7.220;2022-10-18T05:34:44;14.60;99.90
23411;DHT22;11878;51.774;7.220;2022-10-18T05:37:46;14.50;99.90
23411;DHT22;11878;51.774;7.220;2022-10-18T05:40:47;14.40;99.90
23411;DHT22;11878;51.774;7.220;2022-10-18T05:43:49;14.50;99.90
23411;DHT22;11878;51.774;7.220;2022-10-18T05:46:51;14.40;99.90
23411;DHT22;11878;51.774;7.220;2022-10-18T05:49:53;14.50;99.90
23411;DHT22;11878;51.774;7.220;2022-10-18T05:52:55;14.50;99.90
23411;DHT22;11878;51.774;7.220;2022-10-18T05:56:12;14.50;99.90
23411;DHT22;11878;51.774;7.220;2022-10-18T05:59:14;14.50;99.90
23411;DHT22;11878;51.774;7.220;2022-10-18T06:02:17;14.40;99.90
23411;DHT22;11878;51.774;7.220;2022-10-18T06:05:19;14.50;99.90
23411;DHT22;11878;51.774;7.220;2022-10-18T06:08:20;14.50;99.90
23411;DHT22;11878;51.774;7.220;2022-10-18T06:11:23;14.60;99.90
23411;DHT22;11878;51.774;7.220;2022-10-18T06:14:25;14.60;99.90
23411;DHT22;11878;51.774;7.220;2022-10-18T06:17:26;14.60;99.90
23411;DHT22;11878;51.774;7.220;2022-10-18T06:20:33;14.60;99.90
23411;DHT22;11878;51.774;7.220;2022-10-18T06:23:35;14.60;99.90
23411;DHT22;11878;51.774;7.220;2022-10-18T06:26:37;14.60;99.90
23411;DHT22;11878;51.774;7.220;2022-10-18T06:29:39;14.60;99.90
23411;DHT22;11878;51.774;7.220;2022-10-18T06:32:41;14.70;99.90
23411;DHT22;11878;51.774;7.220;2022-10-18T06:35:42;14.70;99.90
23411;DHT22;11878;51.774;7.220;2022-10-18T06:38:44;14.70;99.90
23411;DHT22;11878;51.774;7.220;2022-10-18T06:41:46;14.70;99.90
23411;DHT22;11878;51.774;7.220;2022-10-18T06:44:53;14.70;99.90
23411;DHT22;11878;51.774;7.220;2022-10-18T06:47:54;14.80;99.90
23411;DHT22;11878;51.774;7.220;2022-10-18T06:50:58;14.80;99.90
23411;DHT22;11878;51.774;7.220;2022-10-18T06:54:00;14.80;99.90
23411;DHT22;11878;51.774;7.220;2022-10-18T06:57:20;14.80;99.90
23411;DHT22;11878;51.774;7.220;2022-10-18T07:00:22;14.80;99.90
23411;DHT22;11878;51.774;7.220;2022-10-18T07:03:24;14.90;99.90
23411;DHT22;11878;51.774;7.220;2022-10-18T07:06:26;14.90;99.90
23411;DHT22;11878;51.774;7.220;2022-10-18T07:09:28;14.90;99.90
23411;DHT22;11878;51.774;7.220;2022-10-18T07:12:31;14.90;99.90
23411;DHT22;11878;51.774;7.220;2022-10-18T07:15:32;14.90;99.90
23411;DHT22;11878;51.774;7.220;2022-10-18T07:18:38;14.90;99.90
23411;DHT22;11878;51.774;7.220;2022-10-18T07:21:39;14.90;99.90
23411;DHT22;11878;51.774;7.220;2022-10-18T07:24:41;14.90;99.90
23411;DHT22;11878;51.774;7.220;2022-10-18T07:27:43;15.00;99.90
23411;DHT22;11878;51.774;7.220;2022-10-18T07:30:44;15.00;99.90
23411;DHT22;11878;51.774;7.220;2022-10-18T07:33:46;15.10;99.90
23411;DHT22;11878;51.774;7.220;2022-10-18T07:36:48;15.20;99.90
23411;DHT22;11878;51.774;7.220;2022-10-18T07:39:49;15.20;99.90
23411;DHT22;11878;51.774;7.220;2022-10-18T07:42:51;15.10;99.90
23411;DHT22;11878;51.774;7.220;2022-10-18T07:45:58;15.10;99.90
23411;DHT22;11878;51.774;7.220;2022-10-18T07:49:01;15.10;99.90
23411;DHT22;11878;51.774;7.220;2022-10-18T07:52:02;15.00;99.90
23411;DHT22;11878;51.774;7.220;2022-10-18T07:55:04;15.00;99.90
23411;DHT22;11878;51.774;7.220;2022-10-18T07:58:06;15.00;99.90
23411;DHT22;11878;51.774;7.220;2022-10-18T08:01:08;14.90;99.90
23411;DHT22;11878;51.774;7.220;2022-10-18T08:04:10;15.00;99.90
23411;DHT22;11878;51.774;7.220;2022-10-18T08:07:17;15.00;99.90
23411;DHT22;11878;51.774;7.220;2022-10-18T08:10:19;15.00;99.90
23411;DHT22;11878;51.774;7.220;2022-10-18T08:13:21;15.00;99.90
23411;DHT22;11878;51.774;7.220;2022-10-18T08:16:25;15.10;99.90
23411;DHT22;11878;51.774;7.220;2022-10-18T08:19:27;15.20;99.90
23411;DHT22;11878;51.774;7.220;2022-10-18T08:22:29;15.20;99.90
23411;DHT22;11878;51.774;7.220;2022-10-18T08:25:31;15.20;99.90
23411;DHT22;11878;51.774;7.220;2022-10-18T08:28:33;15.20;99.90
23411;DHT22;11878;51.774;7.220;2022-10-18T08:31:37;15.30;99.90
23411;DHT22;11878;51.774;7.220;2022-10-18T08:34:39;15.40;99.90
23411;DHT22;11878;51.774;7.220;2022-10-18T08:37:40;15.40;99.90
23411;DHT22;11878;51.774;7.220;2022-10-18T08:40:43;15.50;99.90
23411;DHT22;11878;51.774;7.220;2022-10-18T08:47:21;15.50;99.90
23411;DHT22;11878;51.774;7.220;2022-10-18T08:50:32;15.60;99.90
23411;DHT22;11878;51.774;7.220;2022-10-18T08:54:06;15.50;99.90
23411;DHT22;11878;51.774;7.220;2022-10-18T08:57:13;15.60;99.90
23411;DHT22;11878;51.774;7.220;2022-10-18T09:00:20;15.60;99.90
23411;DHT22;11878;51.774;7.220;2022-10-18T09:16:54;16.30;99.90
23411;DHT22;11878;51.774;7.220;2022-10-18T09:20:18;16.60;99.90
23411;DHT22;11878;51.774;7.220;2022-10-18T09:24:04;16.50;99.90
23411;DHT22;11878;51.774;7.220;2022-10-18T09:27:19;17.20;99.90
23411;DHT22;11878;51.774;7.220;2022-10-18T09:30:32;17.60;99.90
23411;DHT22;11878;51.774;7.220;2022-10-18T09:33:47;17.90;99.90
23411;DHT22;11878;51.774;7.220;2022-10-18T09:36:51;18.40;99.90
23411;DHT22;11878;51.774;7.220;2022-10-18T09:40:02;18.60;99.90
23411;DHT22;11878;51.774;7.220;2022-10-18T09:43:24;18.80;99.90
23411;DHT22;11878;51.774;7.220;2022-10-18T09:46:32;19.00;99.90
23411;DHT22;11878;51.774;7.220;2022-10-18T09:49:47;19.30;99.90
23411;DHT22;11878;51.774;7.220;2022-10-18T09:56:27;19.60;99.90
23411;DHT22;11878;51.774;7.220;2022-10-18T09:59:42;19.70;99.90
23411;DHT22;11878;51.774;7.220;2022-10-18T10:02:46;19.80;99.90
23411;DHT22;11878;51.774;7.220;2022-10-18T10:06:01;19.60;99.90
23411;DHT22;11878;51.774;7.220;2022-10-18T10:09:14;19.00;99.90
23411;DHT22;11878;51.774;7.220;2022-10-18T10:15:29;18.20;99.90
23411;DHT22;11878;51.774;7.220;2022-10-18T10:18:39;18.00;99.90
23411;DHT22;11878;51.774;7.220;2022-10-18T10:21:41;17.80;99.90
23411;DHT22;11878;51.774;7.220;2022-10-18T10:24:49;18.40;99.90
23411;DHT22;11878;51.774;7.220;2022-10-18T10:27:51;18.90;99.90
23411;DHT22;11878;51.774;7.220;2022-10-18T10:30:53;18.90;99.90
23411;DHT22;11878;51.774;7.220;2022-10-18T10:37:35;18.30;99.90
23411;DHT22;11878;51.774;7.220;2022-10-18T10:40:46;18.10;99.90
23411;DHT22;11878;51.774;7.220;2022-10-18T10:43:50;18.00;99.90
23411;DHT22;11878;51.774;7.220;2022-10-18T10:46:53;18.10;99.90
23411;DHT22;11878;51.774;7.220;2022-10-18T10:49:55;18.10;99.90
23411;DHT22;11878;51.774;7.220;2022-10-18T10:52:57;18.30;99.90
23411;DHT22;11878;51.774;7.220;2022-10-18T10:55:59;18.40;99.90
23411;DHT22;11878;51.774;7.220;2022-10-18T10:59:17;18.30;99.90
23411;DHT22;11878;51.774;7.220;2022-10-18T11:02:22;17.90;99.90
23411;DHT22;11878;51.774;7.220;2022-10-18T11:05:27;17.60;99.90
23411;DHT22;11878;51.774;7.220;2022-10-18T11:08:37;17.50;99.90
23411;DHT22;11878;51.774;7.220;2022-10-18T11:11:43;17.60;99.90
23411;DHT22;11878;51.774;7.220;2022-10-18T11:14:58;17.70;99.90
23411;DHT22;11878;51.774;7.220;2022-10-18T11:18:23;17.80;99.90
23411;DHT22;11878;51.774;7.220;2022-10-18T11:21:28;17.90;99.90
23411;DHT22;11878;51.774;7.220;2022-10-18T11:24:33;17.90;99.90
23411;DHT22;11878;51.774;7.220;2022-10-18T11:27:52;18.10;99.90
23411;DHT22;11878;51.774;7.220;2022-10-18T11:31:20;18.30;99.90
23411;DHT22;11878;51.774;7.220;2022-10-18T11:44:22;18.30;99.90
23411;DHT22;11878;51.774;7.220;2022-10-18T11:47:33;18.40;99.90
23411;DHT22;11878;51.774;7.220;2022-10-18T11:50:43;18.60;99.90
23411;DHT22;11878;51.774;7.220;2022-10-18T12:01:13;18.40;99.90
23411;DHT22;11878;51.774;7.220;2022-10-18T12:04:18;18.40;99.90
23411;DHT22;11878;51.774;7.220;2022-10-18T12:07:22;18.50;99.90
23411;DHT22;11878;51.774;7.220;2022-10-18T12:10:33;18.50;99.90
23411;DHT22;11878;51.774;7.220;2022-10-18T12:14:03;18.80;99.90
23411;DHT22;11878;51.774;7.220;2022-10-18T12:20:53;18.70;99.90
23411;DHT22;11878;51.774;7.220;2022-10-18T12:24:02;18.60;99.90
23411;DHT22;11878;51.774;7.220;2022-10-18T12:27:10;18.30;99.90
23411;DHT22;11878;51.774;7.220;2022-10-18T12:33:33;18.30;99.90
23411;DHT22;11878;51.774;7.220;2022-10-18T12:36:58;18.30;99.90
23411;DHT22;11878;51.774;7.220;2022-10-18T12:40:15;18.30;99.90
23411;DHT22;11878;51.774;7.220;2022-10-18T12:43:24;18.40;99.90
23411;DHT22;11878;51.774;7.220;2022-10-18T12:46:46;18.30;99.90
23411;DHT22;11878;51.774;7.220;2022-10-18T12:49:57;18.40;99.90
23411;DHT22;11878;51.774;7.220;2022-10-18T13:02:32;18.30;99.90
23411;DHT22;11878;51.774;7.220;2022-10-18T13:09:18;18.40;99.90
23411;DHT22;11878;51.774;7.220;2022-10-18T13:15:46;18.40;99.90
23411;DHT22;11878;51.774;7.220;2022-10-18T13:18:56;18.40;99.90
23411;DHT22;11878;51.774;7.220;2022-10-18T13:26:45;18.30;99.90
23411;DHT22;11878;51.774;7.220;2022-10-18T13:36:29;20.80;98.90
23411;DHT22;11878;51.774;7.220;2022-10-18T13:39:33;20.60;93.90
23411;DHT22;11878;51.774;7.220;2022-10-18T13:42:35;21.10;90.30
23411;DHT22;11878;51.774;7.220;2022-10-18T14:02:44;22.30;77.70
23411;DHT22;11878;51.774;7.220;2022-10-18T14:09:18;27.00;54.20
23411;DHT22;11878;51.774;7.220;2022-10-18T14:12:42;27.50;56.30
23411;DHT22;11878;51.774;7.220;2022-10-18T14:15:51;27.90;49.80
23411;DHT22;11878;51.774;7.220;2022-10-18T14:19:01;28.40;49.10
23411;DHT22;11878;51.774;7.220;2022-10-18T14:22:21;28.50;48.40
23411;DHT22;11878;51.774;7.220;2022-10-18T14:25:29;27.50;48.10
23411;DHT22;11878;51.774;7.220;2022-10-18T14:28:31;28.40;47.10
23411;DHT22;11878;51.774;7.220;2022-10-18T14:31:53;28.60;45.00
23411;DHT22;11878;51.774;7.220;2022-10-18T14:34:55;26.30;47.70
23411;DHT22;11878;51.774;7.220;2022-10-18T14:38:17;23.60;58.80
23411;DHT22;11878;51.774;7.220;2022-10-18T14:41:31;22.00;65.30
23411;DHT22;11878;51.774;7.220;2022-10-18T14:44:33;21.40;73.60
23411;DHT22;11878;51.774;7.220;2022-10-18T14:47:36;21.30;69.90
23411;DHT22;11878;51.774;7.220;2022-10-18T14:50:37;20.80;75.00
23411;DHT22;11878;51.774;7.220;2022-10-18T14:53:39;21.10;68.70
23411;DHT22;11878;51.774;7.220;2022-10-18T14:56:42;22.00;69.40
23411;DHT22;11878;51.774;7.220;2022-10-18T14:59:47;22.70;63.80
23411;DHT22;11878;51.774;7.220;2022-10-18T15:02:52;21.80;65.80
23411;DHT22;11878;51.774;7.220;2022-10-18T15:05:59;21.20;69.60
23411;DHT22;11878;51.774;7.220;2022-10-18T15:09:02;20.30;80.00
23411;DHT22;11878;51.774;7.220;2022-10-18T15:12:07;19.70;89.20
23411;DHT22;11878;51.774;7.220;2022-10-18T15:15:24;19.40;90.30
23411;DHT22;11878;51.774;7.220;2022-10-18T15:18:27;19.30;92.70
23411;DHT22;11878;51.774;7.220;2022-10-18T15:21:30;19.00;90.30
23411;DHT22;11878;51.774;7.220;2022-10-18T15:24:38;19.00;89.30
23411;DHT22;11878;51.774;7.220;2022-10-18T15:27:42;18.80;92.70
23411;DHT22;11878;51.774;7.220;2022-10-18T15:30:45;18.40;97.20
23411;DHT22;11878;51.774;7.220;2022-10-18T15:33:47;18.20;96.60
23411;DHT22;11878;51.774;7.220;2022-10-18T15:36:51;18.10;99.40
23411;DHT22;11878;51.774;7.220;2022-10-18T15:46:30;17.60;99.90
23411;DHT22;11878;51.774;7.220;2022-10-18T15:49:56;17.40;99.90
23411;DHT22;11878;51.774;7.220;2022-10-18T15:56:32;17.20;99.90
23411;DHT22;11878;51.774;7.220;2022-10-18T15:59:50;17.00;99.90
23411;DHT22;11878;51.774;7.220;2022-10-18T16:02:52;17.00;99.90
23411;DHT22;11878;51.774;7.220;2022-10-18T16:05:59;16.80;99.90
23411;DHT22;11878;51.774;7.220;2022-10-18T16:09:03;16.80;99.90
23411;DHT22;11878;51.774;7.220;2022-10-18T16:12:05;16.60;99.90
23411;DHT22;11878;51.774;7.220;2022-10-18T16:15:07;16.60;99.90
23411;DHT22;11878;51.774;7.220;2022-10-18T16:18:15;16.60;99.90
23411;DHT22;11878;51.774;7.220;2022-10-18T16:21:30;16.40;99.90
23411;DHT22;11878;51.774;7.220;2022-10-18T16:24:32;16.30;99.90
23411;DHT22;11878;51.774;7.220;2022-10-18T16:27:34;16.10;99.90
23411;DHT22;11878;51.774;7.220;2022-10-18T16:30:36;15.90;99.90
23411;DHT22;11878;51.774;7.220;2022-10-18T16:33:37;15.80;99.90
23411;DHT22;11878;51.774;7.220;2022-10-18T16:36:40;15.60;99.90
23411;DHT22;11878;51.774;7.220;2022-10-18T16:39:41;15.50;99.90
23411;DHT22;11878;51.774;7.220;2022-10-18T16:42:43;15.30;99.90
23411;DHT22;11878;51.774;7.220;2022-10-18T16:45:45;15.20;99.90
23411;DHT22;11878;51.774;7.220;2022-10-18T16:48:48;15.20;99.90
23411;DHT22;11878;51.774;7.220;2022-10-18T16:51:51;15.10;99.90
23411;DHT22;11878;51.774;7.220;2022-10-18T16:54:53;15.00;99.90
23411;DHT22;11878;51.774;7.220;2022-10-18T16:57:55;15.00;99.90
23411;DHT22;11878;51.774;7.220;2022-10-18T17:00:58;15.00;99.90
23411;DHT22;11878;51.774;7.220;2022-10-18T17:04:04;14.90;99.90
23411;DHT22;11878;51.774;7.220;2022-10-18T17:07:06;14.80;99.90
23411;DHT22;11878;51.774;7.220;2022-10-18T17:10:11;14.70;99.90
23411;DHT22;11878;51.774;7.220;2022-10-18T17:13:13;14.50;99.90
23411;DHT22;11878;51.774;7.220;2022-10-18T17:16:35;14.40;99.90
23411;DHT22;11878;51.774;7.220;2022-10-18T17:19:39;14.30;99.90
23411;DHT22;11878;51.774;7.220;2022-10-18T17:22:40;14.30;99.90
23411;DHT22;11878;51.774;7.220;2022-10-18T17:25:42;14.10;99.90
23411;DHT22;11878;51.774;7.220;2022-10-18T17:29:05;14.10;99.90
23411;DHT22;11878;51.774;7.220;2022-10-18T17:32:08;13.90;99.90
23411;DHT22;11878;51.774;7.220;2022-10-18T17:35:11;13.70;99.90
23411;DHT22;11878;51.774;7.220;2022-10-18T17:38:13;13.70;99.90
23411;DHT22;11878;51.774;7.220;2022-10-18T17:41:15;13.60;99.90
23411;DHT22;11878;51.774;7.220;2022-10-18T17:44:16;13.50;99.90
23411;DHT22;11878;51.774;7.220;2022-10-18T17:47:18;13.50;99.90
23411;DHT22;11878;51.774;7.220;2022-10-18T17:50:20;13.40;99.90
23411;DHT22;11878;51.774;7.220;2022-10-18T17:53:23;13.40;99.90
23411;DHT22;11878;51.774;7.220;2022-10-18T17:56:29;13.30;99.90
23411;DHT22;11878;51.774;7.220;2022-10-18T17:59:33;13.20;99.90
23411;DHT22;11878;51.774;7.220;2022-10-18T18:02:35;13.10;99.90
23411;DHT22;11878;51.774;7.220;2022-10-18T18:05:42;13.00;99.90
23411;DHT22;11878;51.774;7.220;2022-10-18T18:08:44;12.90;99.90
23411;DHT22;11878;51.774;7.220;2022-10-18T18:11:46;12.80;99.90
23411;DHT22;11878;51.774;7.220;2022-10-18T18:14:49;12.80;99.90
23411;DHT22;11878;51.774;7.220;2022-10-18T18:17:50;12.70;99.90
23411;DHT22;11878;51.774;7.220;2022-10-18T18:20:58;12.60;99.90
23411;DHT22;11878;51.774;7.220;2022-10-18T18:24:00;12.50;99.90
23411;DHT22;11878;51.774;7.220;2022-10-18T18:27:01;12.50;99.90
23411;DHT22;11878;51.774;7.220;2022-10-18T18:30:05;12.40;99.90
23411;DHT22;11878;51.774;7.220;2022-10-18T18:33:10;12.30;99.90
23411;DHT22;11878;51.774;7.220;2022-10-18T18:36:12;12.70;99.90
23411;DHT22;11878;51.774;7.220;2022-10-18T18:39:25;12.10;99.90
23411;DHT22;11878;51.774;7.220;2022-10-18T18:42:30;12.10;99.90
23411;DHT22;11878;51.774;7.220;2022-10-18T18:45:32;12.20;99.90
23411;DHT22;11878;51.774;7.220;2022-10-18T18:48:35;12.00;99.90
23411;DHT22;11878;51.774;7.220;2022-10-18T18:51:38;12.00;99.90
23411;DHT22;11878;51.774;7.220;2022-10-18T18:54:40;11.90;99.90
23411;DHT22;11878;51.774;7.220;2022-10-18T18:57:42;11.80;99.90
23411;DHT22;11878;51.774;7.220;2022-10-18T19:00:44;11.70;99.90
23411;DHT22;11878;51.774;7.220;2022-10-18T19:03:48;11.60;99.90
23411;DHT22;11878;51.774;7.220;2022-10-18T19:06:50;11.60;99.90
23411;DHT22;11878;51.774;7.220;2022-10-18T19:09:52;11.60;99.90
23411;DHT22;11878;51.774;7.220;2022-10-18T19:12:54;11.50;99.90
23411;DHT22;11878;51.774;7.220;2022-10-18T19:16:16;11.40;99.90
23411;DHT22;11878;51.774;7.220;2022-10-18T19:19:21;11.30;99.90
23411;DHT22;11878;51.774;7.220;2022-10-18T19:22:22;11.30;99.90
23411;DHT22;11878;51.774;7.220;2022-10-18T19:25:24;11.30;99.90
23411;DHT22;11878;51.774;7.220;2022-10-18T19:28:27;11.20;99.90
23411;DHT22;11878;51.774;7.220;2022-10-18T19:31:29;11.20;99.90
23411;DHT22;11878;51.774;7.220;2022-10-18T19:34:31;11.20;99.90
23411;DHT22;11878;51.774;7.220;2022-10-18T19:37:34;11.10;99.90
23411;DHT22;11878;51.774;7.220;2022-10-18T19:40:36;11.10;99.90
23411;DHT22;11878;51.774;7.220;2022-10-18T19:43:38;11.00;99.90
23411;DHT22;11878;51.774;7.220;2022-10-18T19:46:39;11.00;99.90
23411;DHT22;11878;51.774;7.220;2022-10-18T19:49:41;10.80;99.90
23411;DHT22;11878;51.774;7.220;2022-10-18T19:52:43;10.80;99.90
23411;DHT22;11878;51.774;7.220;2022-10-18T19:55:45;10.80;99.90
23411;DHT22;11878;51.774;7.220;2022-10-18T19:58:47;10.70;99.90
23411;DHT22;11878;51.774;7.220;2022-10-18T20:01:50;10.60;99.90
23411;DHT22;11878;51.774;7.220;2022-10-18T20:04:51;10.70;99.90
23411;DHT22;11878;51.774;7.220;2022-10-18T20:07:53;10.60;99.90
23411;DHT22;11878;51.774;7.220;2022-10-18T20:10:55;10.60;99.90
23411;DHT22;11878;51.774;7.220;2022-10-18T20:14:00;10.60;99.90
23411;DHT22;11878;51.774;7.220;2022-10-18T20:17:02;10.60;99.90
23411;DHT22;11878;51.774;7.220;2022-10-18T20:20:04;10.50;99.90
23411;DHT22;11878;51.774;7.220;2022-10-18T20:23:05;10.50;99.90
23411;DHT22;11878;51.774;7.220;2022-10-18T20:26:11;10.40;99.90
23411;DHT22;11878;51.774;7.220;2022-10-18T20:29:20;10.40;99.90
23411;DHT22;11878;51.774;7.220;2022-10-18T20:32:25;10.40;99.90
23411;DHT22;11878;51.774;7.220;2022-10-18T20:35:27;10.30;99.90
23411;DHT22;11878;51.774;7.220;2022-10-18T20:38:30;10.10;99.90
23411;DHT22;11878;51.774;7.220;2022-10-18T20:41:35;10.00;99.90
23411;DHT22;11878;51.774;7.220;2022-10-18T20:44:37;10.20;99.90
23411;DHT22;11878;51.774;7.220;2022-10-18T20:47:41;10.20;99.90
23411;DHT22;11878;51.774;7.220;2022-10-18T20:50:43;10.20;99.90
23411;DHT22;11878;51.774;7.220;2022-10-18T20:53:45;10.10;99.90
23411;DHT22;11878;51.774;7.220;2022-10-18T20:56:47;10.00;99.90
23411;DHT22;11878;51.774;7.220;2022-10-18T20:59:48;10.10;99.90
23411;DHT22;11878;51.774;7.220;2022-10-18T21:02:50;9.90;99.90
23411;DHT22;11878;51.774;7.220;2022-10-18T21:05:51;9.90;99.90
23411;DHT22;11878;51.774;7.220;2022-10-18T21:08:58;9.90;99.90
23411;DHT22;11878;51.774;7.220;2022-10-18T21:11:59;9.80;99.90
23411;DHT22;11878;51.774;7.220;2022-10-18T21:15:01;9.80;99.90
23411;DHT22;11878;51.774;7.220;2022-10-18T21:18:03;9.80;99.90
23411;DHT22;11878;51.774;7.220;2022-10-18T21:21:07;9.80;99.90
23411;DHT22;11878;51.774;7.220;2022-10-18T21:24:10;9.80;99.90
23411;DHT22;11878;51.774;7.220;2022-10-18T21:27:12;9.80;99.90
23411;DHT22;11878;51.774;7.220;2022-10-18T21:30:14;9.80;99.90
23411;DHT22;11878;51.774;7.220;2022-10-18T21:33:15;9.70;99.90
23411;DHT22;11878;51.774;7.220;2022-10-18T21:36:17;9.70;99.90
23411;DHT22;11878;51.774;7.220;2022-10-18T21:39:20;9.60;99.90
23411;DHT22;11878;51.774;7.220;2022-10-18T21:42:27;9.60;99.90
23411;DHT22;11878;51.774;7.220;2022-10-18T21:45:29;9.60;99.90
23411;DHT22;11878;51.774;7.220;2022-10-18T21:48:31;9.50;99.90
23411;DHT22;11878;51.774;7.220;2022-10-18T21:51:33;9.50;99.90